Terminal Aerodrome Forecast
Issued by NWS

Home | Current Version | Previous Version | Text Only | Print | Product List | Glossary On
Versions: 1 2 3 4 5 6 7 8 9 10 11 12 13 14 15 16 17 18
000
FTUS41 KAKQ 270500
TAFPHF
TAF
KPHF 270532Z 2706/2806 31005KT P6SM SCT015 OVC080
      TEMPO 2709/2712 BKN015
     FM271400 VRB03KT P6SM OVC025
     FM271700 03003KT P6SM OVC050
     FM272100 33005KT P6SM BKN050=

USA.gov is the U.S. government's official web portal to all federal, state and local government web resources and services.